Aviation Digital Data Service (ADDS)

Output produced by METARs form (1225 UTC 30 January 2015)
found at http://www.aviationweather.gov/adds/metars/
 
KILG 301151Z AUTO 30016G21KT 10SM FEW080 OVC090 02/M04 A2991 RMK AO2 SLP131 T00171039 10022 20000 53009
KILG 301136Z 3012/3112 30012G18KT P6SM SCT020 OVC050 
     FM301600 31016G26KT P6SM BKN035 
     FM302200 31021G37KT P6SM SCT030 
     FM310800 31017G31KT P6SM SKC